LDPL/PUY METAR and TAF weather

Enter ICAO airport designator
Station Type Date Time Source
LDPL METAR 2019/12/06 09:00 UTC NOAA

LDPL 060900Z 08001KT 9999 -RA BKN016 OVC058 10/08 Q1025 TEMPO BKN010


Station Type Date Time Source
LDPL Decoded METAR 2019/12/06 09:00 UTC NOAA

Pula Aerodrome, Croatia (LDPL) 45-54N 013-55E 63M
Dec 06, 2019 - 04:00 AM EST / 2019.12.06 0900 UTC
Wind: from the E (080 degrees) at 1 MPH (1 KT):0
Visibility: greater than 7 mile(s):0
Sky conditions: overcast
Weather: light rain
Temperature: 50 F (10 C)
Dew Point: 46 F (8 C)
Relative Humidity: 87%
Pressure (altimeter): 30.27 in. Hg (1025 hPa)
ob: LDPL 060900Z 08001KT 9999 -RA BKN016 OVC058 10/08 Q1025 TEMPO BKN010
cycle: 9

Station Type Date Time Source
LDPL TAF 2019/12/06 06:40 UTC NOAA

TAF COR LDPL 060535Z 0606/0706 VRB02KT 9999 BKN040 TX10/0613Z TN07/0606Z PROB40
TEMPO 0606/0706 BKN010 PROB30
TEMPO 0614/0617 SHRA FEW020TCU BKN035 PROB30
TEMPO 0618/0706 2000 MIFG BR BKN005

Example: see airport list